createdAt,value
2022-10-21T00:01:05.549Z,57.85
2022-10-21T00:06:14.699Z,57.78
2022-10-21T00:11:17.626Z,58.05
2022-10-21T00:16:20.863Z,58.02
2022-10-21T00:21:23.849Z,58.42
2022-10-21T00:26:26.731Z,58.17
2022-10-21T00:31:30.648Z,58.31
2022-10-21T00:36:33.842Z,58.18
2022-10-21T00:41:36.771Z,58.26
2022-10-21T00:47:01.118Z,57.98
2022-10-21T00:52:08.770Z,57.99
2022-10-21T00:57:11.888Z,58.13
2022-10-21T01:02:14.998Z,58.43
2022-10-21T01:07:18.342Z,58.33
2022-10-21T01:12:59.775Z,58.13
2022-10-21T01:18:24.686Z,57.84
2022-10-21T01:23:47.054Z,58.09
2022-10-21T01:28:58.812Z,58.49
2022-10-21T01:34:26.212Z,58.51
2022-10-21T01:39:35.593Z,58.81
2022-10-21T01:44:43.130Z,58.58
2022-10-21T01:50:00.428Z,58.76
2022-10-21T01:55:08.811Z,58.54
2022-10-21T02:00:12.687Z,58.78
2022-10-21T02:05:23.182Z,58.86
2022-10-21T02:10:30.148Z,58.82
2022-10-21T02:15:34.455Z,59.10
2022-10-21T02:20:42.500Z,59.37
2022-10-21T02:25:48.910Z,59.28
2022-10-21T02:31:07.184Z,58.96
2022-10-21T02:36:12.696Z,58.87
2022-10-21T02:41:21.405Z,58.81
2022-10-21T02:46:25.123Z,58.77
2022-10-21T02:51:28.162Z,58.70
2022-10-21T02:56:31.264Z,58.83
2022-10-21T03:01:34.224Z,58.81
2022-10-21T03:06:37.106Z,58.90
2022-10-21T03:11:39.977Z,58.90
2022-10-21T03:16:42.880Z,59.48
2022-10-21T03:21:45.790Z,59.00
2022-10-21T03:26:48.733Z,59.49
2022-10-21T03:31:51.656Z,59.28
2022-10-21T03:36:56.028Z,59.26
2022-10-21T03:41:58.934Z,59.76
2022-10-21T03:47:01.886Z,59.66
2022-10-21T03:52:04.850Z,59.51
2022-10-21T03:57:08.078Z,59.38
2022-10-21T04:02:11.023Z,59.60
2022-10-21T04:07:14.178Z,59.87
2022-10-21T04:12:17.066Z,59.61
2022-10-21T04:17:20.091Z,59.61
2022-10-21T04:22:23.288Z,59.58
2022-10-21T04:27:26.148Z,59.54
2022-10-21T04:32:29.067Z,59.53
2022-10-21T04:37:32.198Z,59.22
2022-10-21T04:42:35.131Z,59.57
2022-10-21T04:47:38.324Z,59.65
2022-10-21T04:52:41.510Z,59.83
2022-10-21T04:57:44.652Z,60.11
2022-10-21T05:02:47.859Z,59.96
2022-10-21T05:07:50.779Z,60.12
2022-10-21T05:12:53.781Z,59.99
2022-10-21T05:17:56.749Z,59.84
2022-10-21T05:22:59.774Z,59.59
2022-10-21T05:28:02.757Z,59.87
2022-10-21T05:33:06.949Z,59.90
2022-10-21T05:38:10.047Z,60.34
2022-10-21T05:43:12.981Z,60.34
2022-10-21T05:48:18.442Z,60.20
2022-10-21T05:53:24.027Z,60.38
2022-10-21T05:58:28.155Z,60.50
2022-10-21T06:03:33.128Z,60.72
2022-10-21T06:08:39.308Z,61.12
2022-10-21T06:13:42.865Z,61.14
2022-10-21T06:18:45.885Z,61.24
2022-10-21T06:23:53.794Z,60.87
2022-10-21T06:28:57.898Z,60.66
2022-10-21T06:34:00.865Z,60.54
2022-10-21T06:39:05.752Z,60.53
2022-10-21T06:44:08.685Z,60.26
2022-10-21T06:49:11.667Z,60.61
2022-10-21T06:54:14.647Z,60.69
2022-10-21T06:59:17.701Z,60.85
2022-10-21T07:04:20.579Z,60.89
2022-10-21T07:09:23.525Z,60.64
2022-10-21T07:14:26.728Z,60.53
2022-10-21T07:19:29.854Z,60.67
2022-10-21T07:24:33.232Z,60.41
2022-10-21T07:29:36.146Z,60.21
2022-10-21T07:34:39.060Z,60.10
2022-10-21T07:39:42.093Z,60.11
2022-10-21T07:44:45.055Z,60.16
2022-10-21T07:49:47.889Z,60.59
2022-10-21T07:54:50.882Z,60.25
2022-10-21T07:59:56.335Z,60.04
2022-10-21T08:04:59.384Z,60.15
2022-10-21T08:10:02.823Z,60.20
2022-10-21T08:15:06.150Z,60.21
2022-10-21T08:20:09.683Z,60.31
2022-10-21T08:25:16.769Z,60.20
2022-10-21T08:30:19.655Z,60.30
2022-10-21T08:35:22.591Z,60.04
2022-10-21T08:40:26.178Z,60.12
2022-10-21T08:45:38.251Z,60.14
2022-10-21T08:50:47.339Z,59.90
2022-10-21T08:55:52.736Z,60.15
2022-10-21T09:01:10.879Z,60.05
2022-10-21T09:06:19.696Z,59.91
2022-10-21T09:11:34.558Z,59.82
2022-10-21T09:16:58.376Z,59.74
2022-10-21T09:22:29.996Z,59.56
2022-10-21T09:27:51.520Z,59.41
2022-10-21T09:32:59.651Z,59.44
2022-10-21T09:38:14.190Z,59.24
2022-10-21T09:43:20.995Z,59.05
2022-10-21T09:48:41.719Z,58.27
2022-10-21T09:53:57.459Z,58.04
2022-10-21T09:59:07.643Z,58.56
2022-10-21T10:04:14.968Z,58.16
2022-10-21T10:09:34.097Z,57.91
2022-10-21T10:14:39.733Z,57.49
2022-10-21T10:19:42.683Z,57.58
2022-10-21T10:24:45.671Z,57.34
2022-10-21T10:30:00.847Z,57.74
2022-10-21T10:35:14.945Z,57.33
2022-10-21T10:40:28.867Z,57.33
2022-10-21T10:45:32.306Z,57.17
2022-10-21T10:50:38.033Z,57.34
2022-10-21T10:55:45.584Z,57.18
2022-10-21T11:00:52.048Z,56.72
2022-10-21T11:06:08.399Z,56.56
2022-10-21T11:11:20.028Z,56.16
2022-10-21T11:16:50.574Z,56.16
2022-10-21T11:22:24.163Z,55.98
2022-10-21T11:28:02.681Z,55.77
2022-10-21T11:33:23.641Z,55.73
2022-10-21T11:38:41.396Z,55.78
2022-10-21T11:44:05.687Z,55.78
2022-10-21T11:49:40.800Z,55.81
2022-10-21T11:55:08.350Z,55.84
2022-10-21T12:00:26.534Z,55.73
2022-10-21T12:05:47.102Z,55.95
2022-10-21T12:10:55.700Z,56.20
2022-10-21T12:16:02.455Z,55.89
2022-10-21T12:21:07.235Z,56.02
2022-10-21T12:26:18.022Z,56.08
2022-10-21T12:31:38.275Z,56.12
2022-10-21T12:36:41.351Z,56.16
2022-10-21T12:41:47.301Z,55.95
2022-10-21T12:46:56.573Z,56.33
2022-10-21T12:52:22.734Z,56.15
2022-10-21T12:57:28.287Z,56.21
2022-10-21T13:02:31.383Z,56.05
2022-10-21T13:07:36.175Z,56.04
2022-10-21T13:12:39.411Z,55.86
2022-10-21T13:17:56.294Z,55.90
2022-10-21T13:23:31.792Z,55.90
2022-10-21T13:28:34.898Z,55.68
2022-10-21T13:33:39.218Z,55.56
2022-10-21T13:38:51.313Z,55.50
2022-10-21T13:43:55.852Z,55.31
2022-10-21T13:49:01.987Z,55.28
2022-10-21T13:54:16.197Z,55.12
2022-10-21T13:59:30.054Z,55.00
2022-10-21T14:04:40.215Z,55.01
2022-10-21T14:09:46.632Z,54.89
2022-10-21T14:14:50.159Z,54.78
2022-10-21T14:20:07.813Z,54.62
2022-10-21T14:25:16.118Z,54.42
2022-10-21T14:30:25.821Z,54.37
2022-10-21T14:35:30.459Z,54.28
2022-10-21T14:40:37.780Z,54.28
2022-10-21T14:45:53.956Z,54.18
2022-10-21T14:51:11.247Z,54.17
2022-10-21T14:56:22.373Z,54.11
2022-10-21T15:01:26.029Z,54.19
2022-10-21T15:06:32.791Z,54.35
2022-10-21T15:11:38.333Z,54.52
2022-10-21T15:16:52.145Z,54.48
2022-10-21T15:22:00.979Z,54.63
2022-10-21T15:27:05.456Z,54.74
2022-10-21T15:32:12.333Z,54.70
2022-10-21T15:37:15.334Z,54.71
2022-10-21T15:42:19.387Z,54.59
2022-10-21T15:47:24.940Z,54.65
2022-10-21T15:52:27.811Z,54.60
2022-10-21T15:57:30.715Z,54.83
2022-10-21T16:02:39.496Z,54.70
2022-10-21T16:07:43.210Z,55.05
2022-10-21T16:12:46.316Z,55.17
2022-10-21T16:17:54.248Z,55.22
2022-10-21T16:23:02.266Z,55.47
2022-10-21T16:28:06.528Z,55.50
2022-10-21T16:33:11.334Z,55.63
2022-10-21T16:38:14.549Z,55.87
2022-10-21T16:43:17.649Z,56.01
2022-10-21T16:48:20.759Z,56.15
2022-10-21T16:53:24.015Z,56.17
2022-10-21T16:58:27.021Z,57.24
2022-10-21T17:03:30.273Z,62.10
2022-10-21T17:08:33.188Z,61.40
2022-10-21T17:13:36.184Z,59.65
2022-10-21T17:18:39.998Z,57.88
2022-10-21T17:23:42.916Z,56.61
2022-10-21T17:28:45.940Z,55.80
2022-10-21T17:33:50.910Z,54.97
2022-10-21T17:38:54.048Z,54.06
2022-10-21T17:43:57.304Z,53.80
2022-10-21T17:49:00.253Z,53.60
2022-10-21T17:54:03.643Z,53.20
2022-10-21T17:59:06.676Z,52.29
2022-10-21T18:08:45.883Z,51.66
2022-10-21T18:13:53.450Z,50.76
2022-10-21T18:19:01.801Z,50.91
2022-10-21T18:24:10.030Z,51.47
2022-10-21T18:29:16.475Z,51.84
2022-10-21T18:34:19.497Z,52.55
2022-10-21T18:39:23.175Z,53.07
2022-10-21T18:44:27.065Z,53.60
2022-10-21T18:49:29.997Z,53.84
2022-10-21T18:54:33.229Z,54.09
2022-10-21T18:59:36.545Z,54.27
2022-10-21T19:04:39.487Z,54.36
2022-10-21T19:09:42.568Z,54.56
2022-10-21T19:14:45.690Z,54.81
2022-10-21T19:19:50.196Z,54.97
2022-10-21T19:24:53.250Z,55.08
2022-10-21T19:29:56.135Z,55.23
2022-10-21T19:34:59.106Z,55.33
2022-10-21T19:40:02.264Z,55.60
2022-10-21T19:45:05.963Z,55.81
2022-10-21T19:50:09.229Z,56.10
2022-10-21T19:55:12.531Z,55.96
2022-10-21T20:00:15.596Z,56.25
2022-10-21T20:05:18.767Z,56.43
2022-10-21T20:10:23.764Z,56.74
2022-10-21T20:15:27.013Z,57.13
2022-10-21T20:20:29.955Z,57.53
2022-10-21T20:25:33.033Z,57.81
2022-10-21T20:30:36.143Z,57.97
2022-10-21T20:35:42.787Z,58.24
2022-10-21T20:40:55.162Z,58.28
2022-10-21T20:46:02.795Z,58.39
2022-10-21T20:51:08.515Z,58.54
2022-10-21T20:56:11.642Z,58.66
2022-10-21T21:01:27.769Z,58.81
2022-10-21T21:06:35.182Z,59.27
2022-10-21T21:11:38.494Z,59.23
2022-10-21T21:16:41.473Z,59.18
2022-10-21T21:21:44.412Z,59.43
2022-10-21T21:26:47.536Z,59.62
2022-10-21T21:31:50.429Z,60.23
2022-10-21T21:36:53.326Z,59.94
2022-10-21T21:41:56.620Z,59.78
2022-10-21T21:46:59.748Z,59.90
2022-10-21T21:52:02.658Z,60.05
2022-10-21T21:57:35.596Z,59.79
2022-10-21T22:02:28.644Z,60.12
2022-10-21T22:07:33.149Z,60.25
2022-10-21T22:12:36.148Z,60.24
2022-10-21T22:17:39.963Z,60.49
2022-10-21T22:22:43.336Z,60.36
2022-10-21T22:27:46.342Z,60.45
2022-10-21T22:32:49.845Z,60.74
2022-10-21T22:37:52.847Z,60.72
2022-10-21T22:42:55.916Z,60.68
2022-10-21T22:47:59.223Z,60.75
2022-10-21T22:53:03.179Z,60.56
2022-10-21T22:58:06.973Z,60.41
2022-10-21T23:03:10.004Z,60.60
2022-10-21T23:08:13.201Z,60.04
2022-10-21T23:13:16.600Z,60.16
2022-10-21T23:18:19.544Z,60.09
2022-10-21T23:23:23.196Z,59.81
2022-10-21T23:28:26.324Z,59.61
2022-10-21T23:33:29.834Z,59.68
2022-10-21T23:38:33.216Z,59.77
2022-10-21T23:43:36.239Z,60.02
2022-10-21T23:48:39.525Z,60.08
2022-10-21T23:53:42.639Z,59.80
2022-10-21T23:58:45.787Z,59.93
